National Weather Service Raw Text Product

Displaying AFOS PIL: TAFMCW Received: 2018-01-03 11:39 UTC


218 
FTUS43 KDMX 031139
TAFMCW
TAF
KMCW 031139Z 0312/0412 32015G26KT P6SM SKC
     FM032300 32010G14KT P6SM SKC
     FM040600 34006KT P6SM SKC=